Latest Coastal Weather Observations for Stenhouse Bay

IDS60701

Issued at 10:51 am CST Tuesday 28 July 2015 (issued every 10 minutes, with the page automatically refreshed every 10 minutes)

About coastal observations | Map of coastal stations | Coastal observations for SA | Marine services | Other Formats
Station Details ID: 022049 Name: STENHOUSE BAY Lat: -35.28 Lon: 136.94 Height: 42.0 m
Data from the previous 72 hours. | See also: Recent months at Stenhouse Bay
Date/Time
CST
Temp

°C
Wind Pressure Rain
since 9am
mm
Weather Cloud Vis
km
Sea
Height
m
Swell
Dir
 
Speed
knots
Gust
knots
hPa Trend Height
m
Period
s
Dir
28/10:30am 12.7 NNW 4 5 1037.3 - 0.0 - - - - - - -
28/10:00am 11.5 NNW 3 5 1037.2 - 0.0 - - - - - - -
28/09:30am 11.4 NNW 6 8 1037.1 - 0.0 - - - - - - -
28/09:00am 10.7 NNW 6 8 1036.9 - 1.2 Rain - - - - - -
28/08:30am 9.4 NNW 5 6 1036.9 - 1.0 - - - - - - -
28/08:00am 7.6 NNW 4 6 1036.4 - 1.0 - - - - - - -
28/07:30am 7.1 NNW 3 5 1036.4 - 1.0 - - - - - - -
28/07:00am 7.2 N 2 3 1036.4 - 1.0 - - - - - - -
28/06:30am 8.1 NNW 3 4 1036.5 - 1.0 - - - - - - -
28/06:00am 8.6 NW 5 7 1036.6 - 1.0 - - - - - - -
28/05:30am 8.1 NNW 4 6 1036.3 - 1.0 - - - - - - -
28/05:00am 8.3 NNW 3 6 1036.2 - 1.0 - - - - - - -
28/04:30am 8.4 W 3 6 1035.8 - 1.0 - - - - - - -
28/04:00am 8.4 NW 4 5 1035.7 - 1.0 - - - - - - -
28/03:30am 8.9 NNW 2 2 1035.7 - 1.0 - - - - - - -
28/03:00am 8.9 WNW 2 2 1035.8 - 1.0 - - - - - - -
28/02:30am 8.7 WNW 6 7 1035.9 - 1.0 - - - - - - -
28/02:00am 9.6 WNW 2 3 1035.8 - 1.0 - - - - - - -
28/01:30am 9.4 WSW 5 7 1035.7 - 0.8 - - - - - - -
28/01:00am 9.2 WNW 7 9 1035.8 - 0.8 - - - - - - -
28/12:30am 9.2 W 5 6 1035.8 - 0.8 - - - - - - -
28/12:00am 8.6 W 7 8 1035.9 - 0.8 - - - - - - -
 
Date/Time
CST
Temp

°C
Wind Pressure Rain
since 9am
mm
Weather Cloud Vis
km
Sea
Height
m
Swell
Dir
 
Speed
knots
Gust
knots
hPa Trend Height
m
Period
s
Dir
27/11:30pm 8.5 W 8 9 1035.9 - 0.8 - - - - - - -
27/11:00pm 8.3 WNW 6 7 1035.8 - 0.8 - - - - - - -
27/10:30pm 9.2 W 8 10 1035.9 - 0.8 - - - - - - -
27/10:00pm 9.6 W 4 7 1035.9 - 0.8 - - - - - - -
27/09:30pm 9.7 W 8 11 1035.9 - 0.6 - - - - - - -
27/09:00pm 9.6 WSW 8 13 1035.9 - 0.4 - - - - - - -
27/08:30pm 9.1 WSW 6 8 1035.8 - 0.4 - - - - - - -
27/08:00pm 8.9 W 4 6 1035.8 - 0.4 - - - - - - -
27/07:30pm 9.7 WSW 4 6 1035.6 - 0.4 - - - - - - -
27/07:00pm 9.2 WSW 5 6 1035.4 - 0.4 - - - - - - -
27/06:30pm 9.6 W 9 13 1035.2 - 0.4 - - - - - - -
27/06:00pm 10.1 WSW 6 8 1035.0 - 0.4 - - - - - - -
27/05:30pm 10.6 WSW 10 15 1035.0 - 0.4 - - - - - - -
27/05:00pm 11.2 W 6 8 1034.8 - 0.4 - - - - - - -
27/04:30pm 11.7 WSW 9 13 1034.5 - 0.4 - - - - - - -
27/04:00pm 11.7 WSW 8 11 1034.5 - 0.4 - - - - - - -
27/03:30pm 12.1 WSW 10 14 1034.5 - 0.4 - - - - - - -
27/03:00pm 11.9 WNW 3 6 1034.4 - 0.4 - - - - - - -
27/02:30pm 12.2 WSW 7 10 1034.4 - 0.4 - - - - - - -
27/02:00pm 13.2 SW 9 14 1034.3 - 0.4 - - - - - - -
27/01:30pm 12.5 WSW 8 12 1034.5 - 0.4 - - - - - - -
27/01:00pm 12.2 WSW 9 12 1034.5 - 0.4 - - - - - - -
27/12:30pm 12.3 WSW 9 13 1034.5 - 0.4 - - - - - - -
27/12:00pm 11.7 WSW 3 6 1034.9 - 0.4 - - - - - - -
27/11:30am 11.0 SSW 7 13 1035.3 - 0.4 - - - - - - -
27/11:00am 10.4 S 7 10 1035.3 - 0.4 - - - - - - -
27/10:30am 10.4 SW 5 10 1035.2 - 0.4 - - - - - - -
27/10:00am 11.5 W 8 12 1035.0 - 0.0 - - - - - - -
27/09:30am 11.6 SW 7 11 1034.6 - 0.0 - - - - - - -
27/09:00am 11.0 SSW 7 10 1034.4 - 2.0 - - - - - - -
27/08:30am 10.2 SW 7 10 1034.0 - 2.0 - - - - - - -
27/08:00am 9.1 W 3 6 1033.7 - 2.0 - - - - - - -
27/07:36am 9.7 WSW 8 19 1033.5 - 1.8 - - - - - - -
27/07:30am 9.3 SW 3 5 1033.3 - 1.8 - - - - - - -
27/07:00am 9.9 SW 7 13 1033.1 - 1.8 - - - - - - -
27/06:30am 10.5 SSW 8 11 1032.6 - 1.8 - - - - - - -
27/06:00am 10.1 SW 7 11 1032.2 - 1.8 - - - - - - -
27/05:30am 9.6 SW 9 12 1032.0 - 1.8 - - - - - - -
27/05:00am 10.0 SW 6 10 1031.7 - 1.8 - - - - - - -
27/04:30am 9.6 SSW 10 13 1031.5 - 1.8 - - - - - - -
27/04:00am 9.2 SSW 15 20 1031.5 - 1.8 - - - - - - -
27/03:57am 9.4 SSW 15 20 1031.5 - 1.6 - - - - - - -
27/03:30am 8.2 W 4 6 1031.4 - 1.6 - - - - - - -
27/03:00am 9.1 SW 12 19 1031.3 - 1.6 - - - - - - -
27/02:30am 9.8 SSW 7 10 1031.1 - 1.6 - - - - - - -
27/02:00am 9.7 S 10 12 1031.1 - 1.6 - - - - - - -
27/01:30am 9.1 S 7 9 1031.1 - 1.6 - - - - - - -
27/01:00am 9.2 S 12 15 1031.0 - 1.6 - - - - - - -
27/12:30am 9.6 SSW 5 8 1030.7 - 1.4 - - - - - - -
27/12:00am 9.1 SW 8 13 1030.8 - 1.4 - - - - - - -
 
Date/Time
CST
Temp

°C
Wind Pressure Rain
since 9am
mm
Weather Cloud Vis
km
Sea
Height
m
Swell
Dir
 
Speed
knots
Gust
knots
hPa Trend Height
m
Period
s
Dir
26/11:30pm 9.3 S 9 14 1030.5 - 1.4 - - - - - - -
26/11:00pm 9.2 S 14 19 1030.4 - 1.4 - - - - - - -
26/10:30pm 9.3 SSW 10 17 1030.3 - 1.2 - - - - - - -
26/10:00pm 8.2 W 4 6 1030.1 - 1.2 - - - - - - -
26/09:30pm 9.9 S 7 11 1029.8 - 0.8 - - - - - - -
26/09:00pm 10.3 SSW 12 16 1029.4 - 0.8 - - - - - - -
26/08:30pm 9.7 SSW 9 15 1029.2 - 0.8 - - - - - - -
26/08:00pm 9.7 SSW 10 16 1028.7 - 0.8 - - - - - - -
26/07:30pm 9.4 WSW 10 16 1028.5 - 0.6 - - - - - - -
26/07:00pm 10.5 SW 12 18 1027.9 - 0.4 - - - - - - -
26/06:30pm 10.4 SW 10 18 1027.6 - 0.4 - - - - - - -
26/06:00pm 10.4 SW 14 20 1027.2 - 0.4 - - - - - - -
26/05:30pm 10.6 SW 14 20 1026.7 - 0.4 - - - - - - -
26/05:00pm 11.0 SW 14 22 1026.2 - 0.4 - - - - - - -
26/04:30pm 10.8 WSW 14 19 1026.1 - 0.4 - - - - - - -
26/04:00pm 9.3 SW 14 23 1025.9 - 0.4 - - - - - - -
26/03:30pm 12.2 SW 15 20 1025.3 - 0.4 - - - - - - -
26/03:00pm 11.8 SW 15 21 1025.1 - 0.4 - - - - - - -
26/02:30pm 11.3 SW 11 14 1025.0 - 0.4 - - - - - - -
26/02:00pm 11.5 SW 15 24 1024.7 - 0.4 - - - - - - -
26/01:30pm 12.6 SW 15 20 1024.6 - 0.4 - - - - - - -
26/01:00pm 11.9 WSW 14 23 1024.5 - 0.4 - - - - - - -
26/12:41pm 12.1 SW 19 32 1024.4 - 0.4 - - - - - - -
26/12:30pm 11.9 SW 14 23 1024.6 - 0.4 - - - - - - -
26/12:00pm 10.6 WSW 16 26 1024.9 - 0.4 Recent precip. - - - - - -
26/11:43am 10.7 SW 17 27 1024.7 - 0.4 - - - - - - -
26/11:30am 9.4 SW 16 24 1024.7 - 0.4 - - - - - - -
26/11:03am 11.6 SW 16 27 1024.5 - 0.0 - - - - - - -
26/11:00am 12.2 SW 15 20 1024.4 - 0.0 - - - - - - -
26/10:30am 11.3 SW 15 21 1024.1 - 0.0 - - - - - - -
26/10:00am 10.4 SW 16 28 1023.5 - 0.0 - - - - - - -
26/09:56am 11.2 SW 15 28 1023.4 - 0.0 - - - - - - -
26/09:30am 10.4 SW 15 22 1023.1 - 0.0 - - - - - - -
26/09:08am 11.2 WSW 19 35 1022.6 - 0.0 - - - - - - -
26/09:00am 11.3 WSW 17 23 1022.5 - 4.2 - - - - - - -
26/08:30am 10.6 SW 18 25 1022.1 - 4.2 - - - - - - -
26/08:00am 10.1 SW 18 25 1021.7 - 4.2 - - - - - - -
26/07:30am 10.1 SW 20 27 1021.1 - 4.2 - - - - - - -
26/07:00am 10.3 SW 20 28 1020.6 - 4.2 - - - - - - -
26/06:30am 10.1 WSW 22 30 1020.0 - 4.2 - - - - - - -
26/06:16am 10.2 WSW 21 31 1019.8 - 4.2 - - - - - - -
26/06:00am 10.3 SW 23 30 1019.3 - 4.2 - - - - - - -
26/05:33am 10.4 WSW 18 29 1018.8 - 4.2 - - - - - - -
26/05:30am 9.9 WSW 17 23 1018.8 - 4.2 - - - - - - -
26/05:18am 9.6 SW 21 31 1018.8 - 4.2 - - - - - - -
26/05:00am 10.7 WSW 23 31 1018.4 - 4.2 - - - - - - -
26/04:30am 10.6 SW 20 29 1018.2 - 4.2 - - - - - - -
26/04:03am 9.3 WSW 21 32 1018.1 - 4.2 - - - - - - -
26/04:00am 9.3 WSW 23 32 1018.2 - 4.2 - - - - - - -
26/03:30am 10.3 WSW 22 32 1017.6 - 4.2 - - - - - - -
26/03:16am 10.6 WSW 22 34 1017.6 - 4.2 - - - - - - -
26/03:00am 10.5 WSW 21 28 1017.7 - 4.2 - - - - - - -
26/02:34am 10.1 WSW 22 33 1017.6 - 4.2 - - - - - - -
26/02:30am 10.0 WSW 22 31 1017.5 - 4.2 - - - - - - -
26/02:00am 10.1 WSW 24 35 1017.1 - 4.2 - - - - - - -
26/01:35am 9.7 WSW 20 31 1017.5 - 4.2 - - - - - - -
26/01:30am 10.4 WSW 22 32 1017.5 - 4.2 - - - - - - -
26/01:15am 10.6 WSW 19 30 1017.2 - 4.2 - - - - - - -
26/01:00am 10.6 WSW 21 29 1017.0 - 4.2 - - - - - - -
26/12:30am 10.0 WSW 19 29 1016.8 - 4.2 - - - - - - -
26/12:01am 10.6 WSW 22 33 1016.9 - 4.0 - - - - - - -
26/12:00am 10.8 WSW 21 31 1016.8 - 4.0 - - - - - - -
 
Date/Time
CST
Temp

°C
Wind Pressure Rain
since 9am
mm
Weather Cloud Vis
km
Sea
Height
m
Swell
Dir
 
Speed
knots
Gust
knots
hPa Trend Height
m
Period
s
Dir
25/11:30pm 10.6 WSW 22 32 1016.5 - 4.0 - - - - - - -
25/11:00pm 11.0 WSW 20 31 1016.2 - 4.0 - - - - - - -
25/10:30pm 11.3 WSW 23 34 1015.4 - 4.0 - - - - - - -
25/10:02pm 11.8 WSW 20 32 1015.6 - 4.0 - - - - - - -
25/10:00pm 11.8 WSW 19 28 1015.6 - 4.0 - - - - - - -
25/09:30pm 11.4 WSW 21 32 1015.3 - 4.0 - - - - - - -
25/09:09pm 11.6 WSW 21 34 1015.0 - 4.0 - - - - - - -
25/09:00pm 11.5 WSW 23 32 1015.1 - 4.0 - - - - - - -
25/08:30pm 11.2 WSW 22 35 1014.5 - 4.0 - - - - - - -
25/08:00pm 11.5 WSW 19 31 1013.9 - 4.0 - - - - - - -
25/07:30pm 12.2 WSW 18 28 1013.5 - 4.0 - - - - - - -
25/07:25pm 11.8 W 17 28 1013.3 - 4.0 - - - - - - -
25/07:00pm 11.8 WSW 19 28 1012.9 - 4.0 - - - - - - -
25/06:30pm 11.7 WSW 15 25 1012.4 - 3.8 - - - - - - -
25/06:00pm 11.6 W 18 29 1011.7 - 3.8 Rain - - - - - -
25/05:53pm 11.7 W 18 29 1011.8 - 3.8 - - - - - - -
25/05:39pm 12.4 WNW 17 27 1011.8 - 2.4 - - - - - - -
25/05:30pm 12.9 NW 17 24 1011.2 - 2.4 - - - - - - -
25/05:02pm 12.8 NW 18 30 1011.4 - 2.2 - - - - - - -
25/05:00pm 12.9 NW 17 24 1011.4 - 2.2 - - - - - - -
25/04:38pm 14.7 NW 17 27 1011.3 - 0.8 - - - - - - -
25/04:30pm 14.8 NW 17 26 1011.3 - 0.8 - - - - - - -
25/04:00pm 15.3 NW 22 37 1011.4 - 0.8 - - - - - - -
25/03:30pm 15.0 NW 17 28 1011.4 - 0.6 - - - - - - -
25/03:00pm 15.3 NW 20 29 1011.3 - 0.6 Recent precip. - - - - - -
25/02:51pm 15.1 NW 18 29 1011.5 - 0.6 - - - - - - -
25/02:30pm 14.0 NW 17 26 1011.9 - 0.6 - - - - - - -
25/02:00pm 13.3 NW 17 29 1012.0 - 0.4 - - - - - - -
25/01:54pm 13.7 NW 17 27 1012.0 - 0.0 - - - - - - -
25/01:30pm 14.3 NW 20 27 1012.0 - 0.0 - - - - - - -
25/01:00pm 14.0 NNW 20 27 1012.6 - 0.0 - - - - - - -
25/12:30pm 14.9 NNW 19 25 1013.4 - 0.0 - - - - - - -
25/12:00pm 14.3 NW 17 24 1014.1 - 0.0 - - - - - - -
25/11:30am 15.0 NW 18 26 1014.3 - 0.0 - - - - - - -
25/11:00am 15.3 NW 17 24 1014.7 - 0.0 - - - - - - -

Other Formats:

Comma delimited format used in spreadsheet applications
http://www.bom.gov.au/fwo/IDS60701/IDS60701.95806.axf

JavaScript Object Notation format (JSON) in row-major order
http://www.bom.gov.au/fwo/IDS60701/IDS60701.95806.json